sensor_id;sensor_type;location;lat;lon;timestamp;P1;durP1;ratioP1;P2;durP2;ratioP2
5323;SDS011;2684;48.154;11.538;2022-08-03T00:02:10;14.13;;;12.93;;
5323;SDS011;2684;48.154;11.538;2022-08-03T00:04:37;13.47;;;12.47;;
5323;SDS011;2684;48.154;11.538;2022-08-03T00:07:04;14.03;;;12.93;;
5323;SDS011;2684;48.154;11.538;2022-08-03T00:09:31;13.23;;;12.30;;
5323;SDS011;2684;48.154;11.538;2022-08-03T00:11:58;13.73;;;12.67;;
5323;SDS011;2684;48.154;11.538;2022-08-03T00:14:25;13.50;;;12.50;;
5323;SDS011;2684;48.154;11.538;2022-08-03T00:16:53;12.70;;;11.90;;
5323;SDS011;2684;48.154;11.538;2022-08-03T00:19:20;13.50;;;12.50;;
5323;SDS011;2684;48.154;11.538;2022-08-03T00:21:47;12.70;;;11.80;;
5323;SDS011;2684;48.154;11.538;2022-08-03T00:24:14;12.90;;;12.00;;
5323;SDS011;2684;48.154;11.538;2022-08-03T00:26:40;13.20;;;12.30;;
5323;SDS011;2684;48.154;11.538;2022-08-03T00:29:07;12.93;;;12.03;;
5323;SDS011;2684;48.154;11.538;2022-08-03T00:31:34;13.53;;;12.50;;
5323;SDS011;2684;48.154;11.538;2022-08-03T00:34:02;12.80;;;11.90;;
5323;SDS011;2684;48.154;11.538;2022-08-03T00:36:29;13.40;;;12.10;;
5323;SDS011;2684;48.154;11.538;2022-08-03T00:38:56;12.40;;;11.60;;
5323;SDS011;2684;48.154;11.538;2022-08-03T00:41:23;12.93;;;11.80;;
5323;SDS011;2684;48.154;11.538;2022-08-03T00:43:50;12.60;;;11.70;;
5323;SDS011;2684;48.154;11.538;2022-08-03T00:46:17;12.57;;;11.77;;
5323;SDS011;2684;48.154;11.538;2022-08-03T00:48:46;12.70;;;11.90;;
5323;SDS011;2684;48.154;11.538;2022-08-03T00:51:14;12.50;;;11.67;;
5323;SDS011;2684;48.154;11.538;2022-08-03T00:53:41;12.60;;;11.70;;
5323;SDS011;2684;48.154;11.538;2022-08-03T00:56:11;12.50;;;11.60;;
5323;SDS011;2684;48.154;11.538;2022-08-03T00:58:39;12.90;;;11.90;;
5323;SDS011;2684;48.154;11.538;2022-08-03T01:01:08;12.50;;;11.70;;
5323;SDS011;2684;48.154;11.538;2022-08-03T01:03:36;12.70;;;11.53;;
5323;SDS011;2684;48.154;11.538;2022-08-03T01:06:04;12.47;;;11.67;;
5323;SDS011;2684;48.154;11.538;2022-08-03T01:08:38;12.30;;;11.40;;
5323;SDS011;2684;48.154;11.538;2022-08-03T01:11:14;12.60;;;11.70;;
5323;SDS011;2684;48.154;11.538;2022-08-03T01:13:50;12.57;;;11.57;;
5323;SDS011;2684;48.154;11.538;2022-08-03T01:16:26;12.20;;;11.30;;
5323;SDS011;2684;48.154;11.538;2022-08-03T01:18:57;12.17;;;11.37;;
5323;SDS011;2684;48.154;11.538;2022-08-03T01:21:31;12.20;;;11.40;;
5323;SDS011;2684;48.154;11.538;2022-08-03T01:24:10;12.30;;;11.50;;
5323;SDS011;2684;48.154;11.538;2022-08-03T01:26:52;12.23;;;11.43;;
5323;SDS011;2684;48.154;11.538;2022-08-03T01:29:33;12.63;;;11.73;;
5323;SDS011;2684;48.154;11.538;2022-08-03T01:32:11;12.33;;;11.53;;
5323;SDS011;2684;48.154;11.538;2022-08-03T01:34:42;12.43;;;11.63;;
5323;SDS011;2684;48.154;11.538;2022-08-03T01:37:12;11.80;;;11.10;;
5323;SDS011;2684;48.154;11.538;2022-08-03T01:39:45;12.50;;;11.50;;
5323;SDS011;2684;48.154;11.538;2022-08-03T01:42:12;12.30;;;11.40;;
5323;SDS011;2684;48.154;11.538;2022-08-03T01:44:41;12.00;;;11.30;;
5323;SDS011;2684;48.154;11.538;2022-08-03T01:47:11;11.93;;;11.17;;
5323;SDS011;2684;48.154;11.538;2022-08-03T01:49:39;12.30;;;11.50;;
5323;SDS011;2684;48.154;11.538;2022-08-03T01:52:10;12.73;;;11.83;;
5323;SDS011;2684;48.154;11.538;2022-08-03T01:54:39;12.50;;;11.60;;
5323;SDS011;2684;48.154;11.538;2022-08-03T01:57:09;13.03;;;12.03;;
5323;SDS011;2684;48.154;11.538;2022-08-03T01:59:36;12.50;;;11.50;;
5323;SDS011;2684;48.154;11.538;2022-08-03T02:02:06;12.40;;;11.60;;
5323;SDS011;2684;48.154;11.538;2022-08-03T02:04:36;12.33;;;11.50;;
5323;SDS011;2684;48.154;11.538;2022-08-03T02:07:04;12.43;;;11.53;;
5323;SDS011;2684;48.154;11.538;2022-08-03T02:09:32;12.80;;;11.80;;
5323;SDS011;2684;48.154;11.538;2022-08-03T02:12:02;12.90;;;11.90;;
5323;SDS011;2684;48.154;11.538;2022-08-03T02:14:32;12.60;;;11.70;;
5323;SDS011;2684;48.154;11.538;2022-08-03T02:17:00;12.40;;;11.50;;
5323;SDS011;2684;48.154;11.538;2022-08-03T02:19:29;12.90;;;12.00;;
5323;SDS011;2684;48.154;11.538;2022-08-03T02:21:57;12.40;;;11.50;;
5323;SDS011;2684;48.154;11.538;2022-08-03T02:24:24;12.77;;;11.87;;
5323;SDS011;2684;48.154;11.538;2022-08-03T02:26:51;12.93;;;11.83;;
5323;SDS011;2684;48.154;11.538;2022-08-03T02:29:21;12.87;;;11.93;;
5323;SDS011;2684;48.154;11.538;2022-08-03T02:31:51;13.47;;;12.37;;
5323;SDS011;2684;48.154;11.538;2022-08-03T02:34:23;16.10;;;12.17;;
5323;SDS011;2684;48.154;11.538;2022-08-03T02:36:55;13.20;;;12.20;;
5323;SDS011;2684;48.154;11.538;2022-08-03T02:39:25;12.60;;;11.70;;
5323;SDS011;2684;48.154;11.538;2022-08-03T02:41:56;12.93;;;12.00;;
5323;SDS011;2684;48.154;11.538;2022-08-03T02:44:27;13.93;;;12.67;;
5323;SDS011;2684;48.154;11.538;2022-08-03T02:46:57;13.50;;;12.50;;
5323;SDS011;2684;48.154;11.538;2022-08-03T02:49:28;13.63;;;12.63;;
5323;SDS011;2684;48.154;11.538;2022-08-03T02:51:58;12.73;;;11.80;;
5323;SDS011;2684;48.154;11.538;2022-08-03T02:54:25;13.50;;;12.23;;
5323;SDS011;2684;48.154;11.538;2022-08-03T02:56:53;13.07;;;12.17;;
5323;SDS011;2684;48.154;11.538;2022-08-03T02:59:22;13.33;;;12.43;;
5323;SDS011;2684;48.154;11.538;2022-08-03T03:01:51;12.73;;;11.83;;
5323;SDS011;2684;48.154;11.538;2022-08-03T03:04:20;12.77;;;11.80;;
5323;SDS011;2684;48.154;11.538;2022-08-03T03:06:47;13.30;;;12.27;;
5323;SDS011;2684;48.154;11.538;2022-08-03T03:09:17;12.73;;;11.83;;
5323;SDS011;2684;48.154;11.538;2022-08-03T03:11:45;13.47;;;12.53;;
5323;SDS011;2684;48.154;11.538;2022-08-03T03:14:16;12.30;;;11.43;;
5323;SDS011;2684;48.154;11.538;2022-08-03T03:16:44;13.17;;;12.17;;
5323;SDS011;2684;48.154;11.538;2022-08-03T03:19:12;13.20;;;12.13;;
5323;SDS011;2684;48.154;11.538;2022-08-03T03:21:40;12.43;;;11.63;;
5323;SDS011;2684;48.154;11.538;2022-08-03T03:24:08;13.00;;;12.10;;
5323;SDS011;2684;48.154;11.538;2022-08-03T03:26:38;12.43;;;11.63;;
5323;SDS011;2684;48.154;11.538;2022-08-03T03:29:05;12.97;;;12.07;;
5323;SDS011;2684;48.154;11.538;2022-08-03T03:31:33;18.40;;;12.20;;
5323;SDS011;2684;48.154;11.538;2022-08-03T03:34:00;12.30;;;11.50;;
5323;SDS011;2684;48.154;11.538;2022-08-03T03:36:28;15.13;;;12.10;;
5323;SDS011;2684;48.154;11.538;2022-08-03T03:38:55;13.33;;;12.33;;
5323;SDS011;2684;48.154;11.538;2022-08-03T03:41:22;12.60;;;11.70;;
5323;SDS011;2684;48.154;11.538;2022-08-03T03:43:51;12.70;;;11.90;;
5323;SDS011;2684;48.154;11.538;2022-08-03T03:46:18;12.50;;;11.70;;
5323;SDS011;2684;48.154;11.538;2022-08-03T03:48:45;12.90;;;12.00;;
5323;SDS011;2684;48.154;11.538;2022-08-03T03:51:12;12.47;;;11.60;;
5323;SDS011;2684;48.154;11.538;2022-08-03T03:53:39;12.90;;;11.90;;
5323;SDS011;2684;48.154;11.538;2022-08-03T03:56:06;12.90;;;12.00;;
5323;SDS011;2684;48.154;11.538;2022-08-03T03:58:33;12.90;;;11.90;;
5323;SDS011;2684;48.154;11.538;2022-08-03T04:01:01;12.70;;;11.80;;
5323;SDS011;2684;48.154;11.538;2022-08-03T04:03:28;13.70;;;12.50;;
5323;SDS011;2684;48.154;11.538;2022-08-03T04:05:55;13.40;;;12.40;;
5323;SDS011;2684;48.154;11.538;2022-08-03T04:08:39;13.83;;;12.80;;
5323;SDS011;2684;48.154;11.538;2022-08-03T04:11:39;12.67;;;11.77;;
5323;SDS011;2684;48.154;11.538;2022-08-03T04:14:12;13.13;;;12.23;;
5323;SDS011;2684;48.154;11.538;2022-08-03T04:16:45;13.13;;;12.13;;
5323;SDS011;2684;48.154;11.538;2022-08-03T04:19:14;13.20;;;12.20;;
5323;SDS011;2684;48.154;11.538;2022-08-03T04:21:47;15.13;;;12.40;;
5323;SDS011;2684;48.154;11.538;2022-08-03T04:24:16;12.90;;;12.00;;
5323;SDS011;2684;48.154;11.538;2022-08-03T04:26:46;13.83;;;12.50;;
5323;SDS011;2684;48.154;11.538;2022-08-03T04:29:16;13.10;;;12.20;;
5323;SDS011;2684;48.154;11.538;2022-08-03T04:31:46;13.03;;;12.03;;
5323;SDS011;2684;48.154;11.538;2022-08-03T04:34:14;12.90;;;12.10;;
5323;SDS011;2684;48.154;11.538;2022-08-03T04:36:43;13.60;;;12.60;;
5323;SDS011;2684;48.154;11.538;2022-08-03T04:39:15;13.20;;;12.30;;
5323;SDS011;2684;48.154;11.538;2022-08-03T04:41:47;13.50;;;12.50;;
5323;SDS011;2684;48.154;11.538;2022-08-03T04:44:17;12.63;;;11.70;;
5323;SDS011;2684;48.154;11.538;2022-08-03T04:46:48;13.73;;;12.53;;
5323;SDS011;2684;48.154;11.538;2022-08-03T04:49:15;13.57;;;12.57;;
5323;SDS011;2684;48.154;11.538;2022-08-03T04:51:42;14.00;;;12.80;;
5323;SDS011;2684;48.154;11.538;2022-08-03T04:54:10;13.50;;;12.10;;
5323;SDS011;2684;48.154;11.538;2022-08-03T04:56:38;13.73;;;12.60;;
5323;SDS011;2684;48.154;11.538;2022-08-03T04:59:05;13.90;;;12.70;;
5323;SDS011;2684;48.154;11.538;2022-08-03T05:01:32;13.37;;;12.43;;
5323;SDS011;2684;48.154;11.538;2022-08-03T05:04:00;13.80;;;12.70;;
5323;SDS011;2684;48.154;11.538;2022-08-03T05:06:27;14.60;;;13.30;;
5323;SDS011;2684;48.154;11.538;2022-08-03T05:08:54;14.00;;;12.80;;
5323;SDS011;2684;48.154;11.538;2022-08-03T05:11:21;14.17;;;12.73;;
5323;SDS011;2684;48.154;11.538;2022-08-03T05:13:48;14.07;;;13.07;;
5323;SDS011;2684;48.154;11.538;2022-08-03T05:16:15;13.87;;;12.70;;
5323;SDS011;2684;48.154;11.538;2022-08-03T05:18:42;13.57;;;12.57;;
5323;SDS011;2684;48.154;11.538;2022-08-03T05:21:11;13.63;;;12.73;;
5323;SDS011;2684;48.154;11.538;2022-08-03T05:23:40;13.60;;;12.60;;
5323;SDS011;2684;48.154;11.538;2022-08-03T05:26:07;14.53;;;13.40;;
5323;SDS011;2684;48.154;11.538;2022-08-03T05:28:35;14.10;;;13.03;;
5323;SDS011;2684;48.154;11.538;2022-08-03T05:31:02;14.20;;;13.10;;
5323;SDS011;2684;48.154;11.538;2022-08-03T05:33:29;18.70;;;13.67;;
5323;SDS011;2684;48.154;11.538;2022-08-03T05:35:56;14.10;;;13.00;;
5323;SDS011;2684;48.154;11.538;2022-08-03T05:38:25;14.80;;;13.53;;
5323;SDS011;2684;48.154;11.538;2022-08-03T05:40:52;14.93;;;13.70;;
5323;SDS011;2684;48.154;11.538;2022-08-03T05:43:19;14.20;;;13.20;;
5323;SDS011;2684;48.154;11.538;2022-08-03T05:45:46;14.10;;;13.00;;
5323;SDS011;2684;48.154;11.538;2022-08-03T05:48:13;14.07;;;12.97;;
5323;SDS011;2684;48.154;11.538;2022-08-03T05:50:40;14.40;;;13.30;;
5323;SDS011;2684;48.154;11.538;2022-08-03T05:53:07;14.80;;;13.30;;
5323;SDS011;2684;48.154;11.538;2022-08-03T05:55:35;14.37;;;13.27;;
5323;SDS011;2684;48.154;11.538;2022-08-03T05:58:02;15.30;;;14.00;;
5323;SDS011;2684;48.154;11.538;2022-08-03T06:00:29;14.57;;;13.33;;
5323;SDS011;2684;48.154;11.538;2022-08-03T06:02:56;15.10;;;13.80;;
5323;SDS011;2684;48.154;11.538;2022-08-03T06:05:23;14.77;;;13.50;;
5323;SDS011;2684;48.154;11.538;2022-08-03T06:07:52;14.50;;;13.33;;
5323;SDS011;2684;48.154;11.538;2022-08-03T06:10:19;14.93;;;13.73;;
5323;SDS011;2684;48.154;11.538;2022-08-03T06:12:47;13.57;;;12.57;;
5323;SDS011;2684;48.154;11.538;2022-08-03T06:15:15;14.17;;;12.87;;
5323;SDS011;2684;48.154;11.538;2022-08-03T06:17:46;13.70;;;12.70;;
5323;SDS011;2684;48.154;11.538;2022-08-03T06:20:15;14.97;;;13.53;;
5323;SDS011;2684;48.154;11.538;2022-08-03T06:22:42;15.27;;;13.83;;
5323;SDS011;2684;48.154;11.538;2022-08-03T06:25:09;14.43;;;13.00;;
5323;SDS011;2684;48.154;11.538;2022-08-03T06:27:36;14.37;;;13.20;;
5323;SDS011;2684;48.154;11.538;2022-08-03T06:30:06;13.93;;;12.83;;
5323;SDS011;2684;48.154;11.538;2022-08-03T06:32:34;29.23;;;13.67;;
5323;SDS011;2684;48.154;11.538;2022-08-03T06:35:01;14.93;;;13.40;;
5323;SDS011;2684;48.154;11.538;2022-08-03T06:37:29;18.90;;;13.90;;
5323;SDS011;2684;48.154;11.538;2022-08-03T06:39:56;14.37;;;13.20;;
5323;SDS011;2684;48.154;11.538;2022-08-03T06:42:22;13.70;;;12.70;;
5323;SDS011;2684;48.154;11.538;2022-08-03T06:44:49;14.70;;;13.33;;
5323;SDS011;2684;48.154;11.538;2022-08-03T06:47:17;14.57;;;13.47;;
5323;SDS011;2684;48.154;11.538;2022-08-03T06:49:44;15.03;;;13.63;;
5323;SDS011;2684;48.154;11.538;2022-08-03T06:52:11;14.10;;;13.10;;
5323;SDS011;2684;48.154;11.538;2022-08-03T06:54:38;14.90;;;13.60;;
5323;SDS011;2684;48.154;11.538;2022-08-03T06:57:05;14.10;;;13.10;;
5323;SDS011;2684;48.154;11.538;2022-08-03T06:59:33;14.87;;;13.70;;
5323;SDS011;2684;48.154;11.538;2022-08-03T07:02:00;14.77;;;13.60;;
5323;SDS011;2684;48.154;11.538;2022-08-03T07:04:29;14.70;;;13.40;;
5323;SDS011;2684;48.154;11.538;2022-08-03T07:06:55;14.73;;;13.30;;
5323;SDS011;2684;48.154;11.538;2022-08-03T07:09:22;14.33;;;13.33;;
5323;SDS011;2684;48.154;11.538;2022-08-03T07:11:50;15.10;;;13.67;;
5323;SDS011;2684;48.154;11.538;2022-08-03T07:14:17;14.30;;;13.10;;
5323;SDS011;2684;48.154;11.538;2022-08-03T07:16:44;14.73;;;13.63;;
5323;SDS011;2684;48.154;11.538;2022-08-03T07:19:11;14.00;;;13.00;;
5323;SDS011;2684;48.154;11.538;2022-08-03T07:21:39;14.07;;;13.07;;
5323;SDS011;2684;48.154;11.538;2022-08-03T07:24:06;14.10;;;13.10;;
5323;SDS011;2684;48.154;11.538;2022-08-03T07:26:33;14.80;;;13.40;;
5323;SDS011;2684;48.154;11.538;2022-08-03T07:29:00;13.97;;;12.97;;
5323;SDS011;2684;48.154;11.538;2022-08-03T07:31:26;14.30;;;13.20;;
5323;SDS011;2684;48.154;11.538;2022-08-03T07:33:53;13.40;;;12.50;;
5323;SDS011;2684;48.154;11.538;2022-08-03T07:36:21;13.63;;;12.63;;
5323;SDS011;2684;48.154;11.538;2022-08-03T07:38:50;14.70;;;13.60;;
5323;SDS011;2684;48.154;11.538;2022-08-03T07:41:17;14.50;;;13.40;;
5323;SDS011;2684;48.154;11.538;2022-08-03T07:43:43;16.20;;;14.20;;
5323;SDS011;2684;48.154;11.538;2022-08-03T07:46:10;15.40;;;13.90;;
5323;SDS011;2684;48.154;11.538;2022-08-03T07:48:37;14.53;;;13.43;;
5323;SDS011;2684;48.154;11.538;2022-08-03T07:51:04;14.00;;;12.90;;
5323;SDS011;2684;48.154;11.538;2022-08-03T07:53:31;14.80;;;13.70;;
5323;SDS011;2684;48.154;11.538;2022-08-03T07:55:59;14.57;;;13.47;;
5323;SDS011;2684;48.154;11.538;2022-08-03T07:58:26;13.90;;;12.90;;
5323;SDS011;2684;48.154;11.538;2022-08-03T08:00:52;13.70;;;12.63;;
5323;SDS011;2684;48.154;11.538;2022-08-03T08:03:19;14.10;;;13.07;;
5323;SDS011;2684;48.154;11.538;2022-08-03T08:05:46;14.17;;;13.17;;
5323;SDS011;2684;48.154;11.538;2022-08-03T08:08:14;13.70;;;12.80;;
5323;SDS011;2684;48.154;11.538;2022-08-03T08:10:41;14.80;;;13.60;;
5323;SDS011;2684;48.154;11.538;2022-08-03T08:13:09;15.07;;;13.83;;
5323;SDS011;2684;48.154;11.538;2022-08-03T08:15:36;14.40;;;13.30;;
5323;SDS011;2684;48.154;11.538;2022-08-03T08:18:03;14.40;;;13.33;;
5323;SDS011;2684;48.154;11.538;2022-08-03T08:20:30;13.70;;;12.70;;
5323;SDS011;2684;48.154;11.538;2022-08-03T08:22:59;14.30;;;13.30;;
5323;SDS011;2684;48.154;11.538;2022-08-03T08:25:26;14.27;;;13.20;;
5323;SDS011;2684;48.154;11.538;2022-08-03T08:27:54;13.77;;;12.77;;
5323;SDS011;2684;48.154;11.538;2022-08-03T08:30:22;14.30;;;13.20;;
5323;SDS011;2684;48.154;11.538;2022-08-03T08:32:49;13.80;;;12.90;;
5323;SDS011;2684;48.154;11.538;2022-08-03T08:35:16;13.37;;;12.47;;
5323;SDS011;2684;48.154;11.538;2022-08-03T08:37:44;14.37;;;12.90;;
5323;SDS011;2684;48.154;11.538;2022-08-03T08:40:11;13.67;;;12.77;;
5323;SDS011;2684;48.154;11.538;2022-08-03T08:42:39;14.10;;;13.10;;
5323;SDS011;2684;48.154;11.538;2022-08-03T08:45:07;13.80;;;12.80;;
5323;SDS011;2684;48.154;11.538;2022-08-03T08:47:38;13.70;;;12.80;;
5323;SDS011;2684;48.154;11.538;2022-08-03T08:50:06;14.23;;;13.23;;
5323;SDS011;2684;48.154;11.538;2022-08-03T08:52:35;14.53;;;13.43;;
5323;SDS011;2684;48.154;11.538;2022-08-03T08:55:05;14.37;;;13.27;;
5323;SDS011;2684;48.154;11.538;2022-08-03T08:57:35;14.03;;;13.03;;
5323;SDS011;2684;48.154;11.538;2022-08-03T09:00:08;14.27;;;13.27;;
5323;SDS011;2684;48.154;11.538;2022-08-03T09:02:39;14.10;;;12.90;;
5323;SDS011;2684;48.154;11.538;2022-08-03T09:05:08;13.70;;;12.70;;
5323;SDS011;2684;48.154;11.538;2022-08-03T09:07:37;14.43;;;13.23;;
5323;SDS011;2684;48.154;11.538;2022-08-03T09:10:04;13.73;;;12.73;;
5323;SDS011;2684;48.154;11.538;2022-08-03T09:12:35;13.77;;;12.87;;
5323;SDS011;2684;48.154;11.538;2022-08-03T09:15:14;13.80;;;12.80;;
5323;SDS011;2684;48.154;11.538;2022-08-03T09:17:47;13.70;;;12.70;;
5323;SDS011;2684;48.154;11.538;2022-08-03T09:20:15;13.10;;;12.30;;
5323;SDS011;2684;48.154;11.538;2022-08-03T09:22:53;13.90;;;12.90;;
5323;SDS011;2684;48.154;11.538;2022-08-03T09:25:28;13.83;;;12.83;;
5323;SDS011;2684;48.154;11.538;2022-08-03T09:28:03;13.90;;;12.90;;
5323;SDS011;2684;48.154;11.538;2022-08-03T09:30:35;13.83;;;12.93;;
5323;SDS011;2684;48.154;11.538;2022-08-03T09:33:05;13.27;;;12.27;;
5323;SDS011;2684;48.154;11.538;2022-08-03T09:35:32;13.80;;;12.70;;
5323;SDS011;2684;48.154;11.538;2022-08-03T09:38:12;13.60;;;12.70;;
5323;SDS011;2684;48.154;11.538;2022-08-03T09:40:40;13.47;;;12.57;;
5323;SDS011;2684;48.154;11.538;2022-08-03T09:43:07;13.47;;;12.57;;
5323;SDS011;2684;48.154;11.538;2022-08-03T09:45:34;14.10;;;13.10;;
5323;SDS011;2684;48.154;11.538;2022-08-03T09:50:49;13.70;;;12.70;;
5323;SDS011;2684;48.154;11.538;2022-08-03T09:53:17;13.60;;;12.60;;
5323;SDS011;2684;48.154;11.538;2022-08-03T09:55:55;13.67;;;12.70;;
5323;SDS011;2684;48.154;11.538;2022-08-03T09:58:22;14.07;;;13.07;;
5323;SDS011;2684;48.154;11.538;2022-08-03T10:00:54;13.83;;;12.60;;
5323;SDS011;2684;48.154;11.538;2022-08-03T10:13:38;13.57;;;12.67;;
5323;SDS011;2684;48.154;11.538;2022-08-03T10:16:05;13.50;;;12.60;;
5323;SDS011;2684;48.154;11.538;2022-08-03T10:25:12;13.30;;;12.40;;
5323;SDS011;2684;48.154;11.538;2022-08-03T10:27:41;13.60;;;12.70;;
5323;SDS011;2684;48.154;11.538;2022-08-03T10:30:12;13.70;;;12.80;;
5323;SDS011;2684;48.154;11.538;2022-08-03T10:32:40;13.20;;;12.30;;
5323;SDS011;2684;48.154;11.538;2022-08-03T10:35:10;13.70;;;12.80;;
5323;SDS011;2684;48.154;11.538;2022-08-03T10:37:39;13.60;;;12.70;;
5323;SDS011;2684;48.154;11.538;2022-08-03T10:40:08;13.40;;;12.50;;
5323;SDS011;2684;48.154;11.538;2022-08-03T10:42:37;14.03;;;13.00;;
5323;SDS011;2684;48.154;11.538;2022-08-03T10:45:08;14.43;;;13.23;;
5323;SDS011;2684;48.154;11.538;2022-08-03T10:47:43;13.60;;;12.70;;
5323;SDS011;2684;48.154;11.538;2022-08-03T10:50:10;13.70;;;12.70;;
5323;SDS011;2684;48.154;11.538;2022-08-03T10:52:52;13.73;;;12.83;;
5323;SDS011;2684;48.154;11.538;2022-08-03T10:55:30;13.03;;;12.23;;
5323;SDS011;2684;48.154;11.538;2022-08-03T11:01:16;13.60;;;12.70;;
5323;SDS011;2684;48.154;11.538;2022-08-03T11:06:45;13.47;;;12.57;;
5323;SDS011;2684;48.154;11.538;2022-08-03T11:09:13;13.37;;;12.47;;
5323;SDS011;2684;48.154;11.538;2022-08-03T11:11:42;13.80;;;12.83;;
5323;SDS011;2684;48.154;11.538;2022-08-03T11:14:10;13.57;;;12.47;;
5323;SDS011;2684;48.154;11.538;2022-08-03T11:16:41;14.10;;;13.00;;
5323;SDS011;2684;48.154;11.538;2022-08-03T11:19:11;13.40;;;12.50;;
5323;SDS011;2684;48.154;11.538;2022-08-03T11:27:37;13.23;;;12.13;;
5323;SDS011;2684;48.154;11.538;2022-08-03T11:30:04;13.60;;;12.60;;
5323;SDS011;2684;48.154;11.538;2022-08-03T11:35:26;13.50;;;12.60;;
5323;SDS011;2684;48.154;11.538;2022-08-03T11:38:01;12.73;;;11.93;;
5323;SDS011;2684;48.154;11.538;2022-08-03T11:40:35;13.90;;;12.70;;
5323;SDS011;2684;48.154;11.538;2022-08-03T11:43:06;13.20;;;12.30;;
5323;SDS011;2684;48.154;11.538;2022-08-03T11:45:35;13.33;;;12.43;;
5323;SDS011;2684;48.154;11.538;2022-08-03T11:48:13;13.60;;;12.70;;
5323;SDS011;2684;48.154;11.538;2022-08-03T11:50:41;12.93;;;12.13;;
5323;SDS011;2684;48.154;11.538;2022-08-03T11:53:14;13.20;;;12.37;;
5323;SDS011;2684;48.154;11.538;2022-08-03T11:55:43;13.57;;;12.57;;
5323;SDS011;2684;48.154;11.538;2022-08-03T11:58:19;13.30;;;12.40;;
5323;SDS011;2684;48.154;11.538;2022-08-03T12:00:48;13.60;;;12.50;;
5323;SDS011;2684;48.154;11.538;2022-08-03T12:03:17;12.47;;;11.67;;
5323;SDS011;2684;48.154;11.538;2022-08-03T12:05:46;14.20;;;12.97;;
5323;SDS011;2684;48.154;11.538;2022-08-03T12:08:15;13.23;;;12.43;;
5323;SDS011;2684;48.154;11.538;2022-08-03T12:10:47;13.60;;;12.70;;
5323;SDS011;2684;48.154;11.538;2022-08-03T12:13:15;12.93;;;12.13;;
5323;SDS011;2684;48.154;11.538;2022-08-03T12:15:42;13.43;;;12.53;;
5323;SDS011;2684;48.154;11.538;2022-08-03T12:18:16;13.00;;;12.20;;
5323;SDS011;2684;48.154;11.538;2022-08-03T12:20:46;13.07;;;12.17;;
5323;SDS011;2684;48.154;11.538;2022-08-03T12:23:13;13.20;;;12.30;;
5323;SDS011;2684;48.154;11.538;2022-08-03T12:25:41;13.37;;;12.47;;
5323;SDS011;2684;48.154;11.538;2022-08-03T12:28:13;13.10;;;12.20;;
5323;SDS011;2684;48.154;11.538;2022-08-03T12:30:43;13.10;;;12.20;;
5323;SDS011;2684;48.154;11.538;2022-08-03T12:33:14;13.33;;;12.47;;
5323;SDS011;2684;48.154;11.538;2022-08-03T12:35:47;12.90;;;12.10;;
5323;SDS011;2684;48.154;11.538;2022-08-03T12:38:20;12.65;;;11.85;;
5323;SDS011;2684;48.154;11.538;2022-08-03T12:40:55;12.30;;;11.60;;
5323;SDS011;2684;48.154;11.538;2022-08-03T12:43:22;12.38;;;11.25;;
5323;SDS011;2684;48.154;11.538;2022-08-03T12:45:50;11.75;;;11.05;;
5323;SDS011;2684;48.154;11.538;2022-08-03T12:48:17;11.90;;;11.20;;
5323;SDS011;2684;48.154;11.538;2022-08-03T12:50:45;11.20;;;10.60;;
5323;SDS011;2684;48.154;11.538;2022-08-03T12:53:12;11.25;;;10.70;;
5323;SDS011;2684;48.154;11.538;2022-08-03T12:56:00;11.50;;;10.80;;
5323;SDS011;2684;48.154;11.538;2022-08-03T12:58:28;11.32;;;10.73;;
5323;SDS011;2684;48.154;11.538;2022-08-03T13:00:57;11.13;;;10.52;;
5323;SDS011;2684;48.154;11.538;2022-08-03T13:03:24;11.15;;;10.65;;
5323;SDS011;2684;48.154;11.538;2022-08-03T13:05:52;11.00;;;10.40;;
5323;SDS011;2684;48.154;11.538;2022-08-03T13:08:20;12.35;;;11.55;;
5323;SDS011;2684;48.154;11.538;2022-08-03T13:10:48;11.00;;;10.50;;
5323;SDS011;2684;48.154;11.538;2022-08-03T13:13:15;10.35;;;9.95;;
5323;SDS011;2684;48.154;11.538;2022-08-03T13:15:42;10.65;;;9.98;;
5323;SDS011;2684;48.154;11.538;2022-08-03T13:18:08;10.20;;;9.80;;
5323;SDS011;2684;48.154;11.538;2022-08-03T13:20:35;10.20;;;9.80;;
5323;SDS011;2684;48.154;11.538;2022-08-03T13:23:03;10.20;;;9.80;;
5323;SDS011;2684;48.154;11.538;2022-08-03T13:25:30;10.50;;;10.05;;
5323;SDS011;2684;48.154;11.538;2022-08-03T13:27:57;10.20;;;9.80;;
5323;SDS011;2684;48.154;11.538;2022-08-03T13:30:24;10.30;;;9.80;;
5323;SDS011;2684;48.154;11.538;2022-08-03T13:32:51;10.40;;;10.00;;
5323;SDS011;2684;48.154;11.538;2022-08-03T13:35:17;10.00;;;9.50;;
5323;SDS011;2684;48.154;11.538;2022-08-03T13:37:44;10.35;;;9.95;;
5323;SDS011;2684;48.154;11.538;2022-08-03T13:40:12;10.90;;;10.40;;
5323;SDS011;2684;48.154;11.538;2022-08-03T13:42:39;10.40;;;9.90;;
5323;SDS011;2684;48.154;11.538;2022-08-03T13:45:06;10.48;;;9.88;;
5323;SDS011;2684;48.154;11.538;2022-08-03T13:47:35;10.70;;;10.20;;
5323;SDS011;2684;48.154;11.538;2022-08-03T13:50:02;10.60;;;10.10;;
5323;SDS011;2684;48.154;11.538;2022-08-03T13:52:30;10.73;;;10.15;;
5323;SDS011;2684;48.154;11.538;2022-08-03T13:54:57;10.00;;;9.60;;
5323;SDS011;2684;48.154;11.538;2022-08-03T13:57:26;9.98;;;9.57;;
5323;SDS011;2684;48.154;11.538;2022-08-03T13:59:53;10.68;;;10.18;;
5323;SDS011;2684;48.154;11.538;2022-08-03T14:02:20;10.13;;;9.73;;
5323;SDS011;2684;48.154;11.538;2022-08-03T14:04:47;9.57;;;9.10;;
5323;SDS011;2684;48.154;11.538;2022-08-03T14:07:13;9.18;;;8.88;;
5323;SDS011;2684;48.154;11.538;2022-08-03T14:09:40;9.50;;;9.20;;
5323;SDS011;2684;48.154;11.538;2022-08-03T14:12:07;9.30;;;9.00;;
5323;SDS011;2684;48.154;11.538;2022-08-03T14:14:35;9.48;;;9.18;;
5323;SDS011;2684;48.154;11.538;2022-08-03T14:17:02;9.65;;;9.25;;
5323;SDS011;2684;48.154;11.538;2022-08-03T14:19:29;9.75;;;9.35;;
5323;SDS011;2684;48.154;11.538;2022-08-03T14:21:56;9.82;;;9.45;;
5323;SDS011;2684;48.154;11.538;2022-08-03T14:24:23;10.18;;;9.65;;
5323;SDS011;2684;48.154;11.538;2022-08-03T14:26:50;9.70;;;9.30;;
5323;SDS011;2684;48.154;11.538;2022-08-03T14:29:17;9.95;;;9.55;;
5323;SDS011;2684;48.154;11.538;2022-08-03T14:31:45;9.85;;;9.43;;
5323;SDS011;2684;48.154;11.538;2022-08-03T14:34:12;10.10;;;9.40;;
5323;SDS011;2684;48.154;11.538;2022-08-03T14:36:38;10.45;;;9.80;;
5323;SDS011;2684;48.154;11.538;2022-08-03T14:39:06;9.50;;;9.10;;
5323;SDS011;2684;48.154;11.538;2022-08-03T14:41:33;10.18;;;9.77;;
5323;SDS011;2684;48.154;11.538;2022-08-03T14:44:00;10.23;;;9.73;;
5323;SDS011;2684;48.154;11.538;2022-08-03T14:46:27;10.25;;;9.85;;
5323;SDS011;2684;48.154;11.538;2022-08-03T14:48:55;9.88;;;9.48;;
5323;SDS011;2684;48.154;11.538;2022-08-03T14:51:22;9.70;;;9.30;;
5323;SDS011;2684;48.154;11.538;2022-08-03T14:53:49;10.35;;;9.93;;
5323;SDS011;2684;48.154;11.538;2022-08-03T14:56:16;10.38;;;9.88;;
5323;SDS011;2684;48.154;11.538;2022-08-03T14:58:43;9.70;;;9.30;;
5323;SDS011;2684;48.154;11.538;2022-08-03T15:01:10;9.80;;;9.40;;
5323;SDS011;2684;48.154;11.538;2022-08-03T15:03:36;10.02;;;9.57;;
5323;SDS011;2684;48.154;11.538;2022-08-03T15:06:05;9.70;;;9.30;;
5323;SDS011;2684;48.154;11.538;2022-08-03T15:08:31;9.82;;;9.43;;
5323;SDS011;2684;48.154;11.538;2022-08-03T15:10:58;9.38;;;8.98;;
5323;SDS011;2684;48.154;11.538;2022-08-03T15:13:25;8.85;;;8.52;;
5323;SDS011;2684;48.154;11.538;2022-08-03T15:15:52;9.35;;;9.05;;
5323;SDS011;2684;48.154;11.538;2022-08-03T15:18:19;10.05;;;9.65;;
5323;SDS011;2684;48.154;11.538;2022-08-03T15:20:46;9.13;;;8.82;;
5323;SDS011;2684;48.154;11.538;2022-08-03T15:23:16;10.00;;;9.60;;